sensor_id;sensor_type;location;lat;lon;timestamp;P1;durP1;ratioP1;P2;durP2;ratioP2
25990;SDS011;13779;-33.886;151.198;2024-01-15T00:01:27;34.10;;;5.20;;
25990;SDS011;13779;-33.886;151.198;2024-01-15T00:03:57;26.40;;;5.57;;
25990;SDS011;13779;-33.886;151.198;2024-01-15T00:06:28;28.20;;;4.50;;
25990;SDS011;13779;-33.886;151.198;2024-01-15T00:08:58;27.67;;;4.28;;
25990;SDS011;13779;-33.886;151.198;2024-01-15T00:11:29;25.77;;;4.75;;
25990;SDS011;13779;-33.886;151.198;2024-01-15T00:13:59;26.33;;;4.67;;
25990;SDS011;13779;-33.886;151.198;2024-01-15T00:16:29;25.42;;;4.60;;
25990;SDS011;13779;-33.886;151.198;2024-01-15T00:19:00;36.17;;;5.43;;
25990;SDS011;13779;-33.886;151.198;2024-01-15T00:21:30;29.55;;;5.20;;
25990;SDS011;13779;-33.886;151.198;2024-01-15T00:24:01;28.23;;;5.00;;
25990;SDS011;13779;-33.886;151.198;2024-01-15T00:26:31;22.52;;;4.15;;
25990;SDS011;13779;-33.886;151.198;2024-01-15T00:29:02;34.23;;;5.87;;
25990;SDS011;13779;-33.886;151.198;2024-01-15T00:31:32;23.50;;;3.83;;
25990;SDS011;13779;-33.886;151.198;2024-01-15T00:34:02;30.02;;;5.22;;
25990;SDS011;13779;-33.886;151.198;2024-01-15T00:36:33;19.07;;;3.47;;
25990;SDS011;13779;-33.886;151.198;2024-01-15T00:39:03;25.42;;;4.82;;
25990;SDS011;13779;-33.886;151.198;2024-01-15T00:41:36;22.42;;;4.22;;
25990;SDS011;13779;-33.886;151.198;2024-01-15T00:44:06;27.90;;;5.63;;
25990;SDS011;13779;-33.886;151.198;2024-01-15T00:46:43;26.48;;;5.28;;
25990;SDS011;13779;-33.886;151.198;2024-01-15T00:49:14;24.48;;;4.70;;
25990;SDS011;13779;-33.886;151.198;2024-01-15T00:51:45;19.50;;;4.32;;
25990;SDS011;13779;-33.886;151.198;2024-01-15T00:56:46;26.70;;;4.38;;
25990;SDS011;13779;-33.886;151.198;2024-01-15T00:59:16;25.52;;;4.80;;
25990;SDS011;13779;-33.886;151.198;2024-01-15T01:01:46;27.38;;;4.40;;
25990;SDS011;13779;-33.886;151.198;2024-01-15T01:04:16;25.85;;;4.28;;
25990;SDS011;13779;-33.886;151.198;2024-01-15T01:06:46;27.92;;;3.90;;
25990;SDS011;13779;-33.886;151.198;2024-01-15T01:09:17;23.87;;;4.03;;
25990;SDS011;13779;-33.886;151.198;2024-01-15T01:11:47;25.20;;;4.33;;
25990;SDS011;13779;-33.886;151.198;2024-01-15T01:14:17;17.67;;;3.63;;
25990;SDS011;13779;-33.886;151.198;2024-01-15T01:16:48;22.65;;;3.55;;
25990;SDS011;13779;-33.886;151.198;2024-01-15T01:19:18;24.30;;;4.85;;
25990;SDS011;13779;-33.886;151.198;2024-01-15T01:21:50;17.45;;;3.85;;
25990;SDS011;13779;-33.886;151.198;2024-01-15T01:24:21;27.70;;;4.60;;
25990;SDS011;13779;-33.886;151.198;2024-01-15T01:26:51;27.13;;;5.47;;
25990;SDS011;13779;-33.886;151.198;2024-01-15T01:29:22;29.73;;;5.85;;
25990;SDS011;13779;-33.886;151.198;2024-01-15T01:31:53;25.60;;;4.95;;
25990;SDS011;13779;-33.886;151.198;2024-01-15T01:34:25;23.90;;;3.90;;
25990;SDS011;13779;-33.886;151.198;2024-01-15T01:36:59;24.92;;;5.15;;
25990;SDS011;13779;-33.886;151.198;2024-01-15T01:39:30;22.98;;;4.68;;
25990;SDS011;13779;-33.886;151.198;2024-01-15T01:42:01;27.02;;;4.45;;
25990;SDS011;13779;-33.886;151.198;2024-01-15T01:44:31;21.27;;;4.20;;
25990;SDS011;13779;-33.886;151.198;2024-01-15T01:47:02;25.40;;;4.85;;
25990;SDS011;13779;-33.886;151.198;2024-01-15T01:49:34;21.10;;;3.83;;
25990;SDS011;13779;-33.886;151.198;2024-01-15T01:52:06;19.80;;;4.05;;
25990;SDS011;13779;-33.886;151.198;2024-01-15T01:54:38;32.97;;;5.18;;
25990;SDS011;13779;-33.886;151.198;2024-01-15T01:57:11;28.60;;;5.95;;
25990;SDS011;13779;-33.886;151.198;2024-01-15T01:59:43;32.05;;;5.15;;
25990;SDS011;13779;-33.886;151.198;2024-01-15T02:02:15;25.38;;;4.63;;
25990;SDS011;13779;-33.886;151.198;2024-01-15T02:04:46;27.83;;;5.38;;
25990;SDS011;13779;-33.886;151.198;2024-01-15T02:07:18;33.40;;;6.18;;
25990;SDS011;13779;-33.886;151.198;2024-01-15T02:09:50;22.48;;;3.63;;
25990;SDS011;13779;-33.886;151.198;2024-01-15T02:12:20;25.05;;;3.70;;
25990;SDS011;13779;-33.886;151.198;2024-01-15T02:14:51;15.38;;;3.40;;
25990;SDS011;13779;-33.886;151.198;2024-01-15T02:17:21;28.23;;;4.63;;
25990;SDS011;13779;-33.886;151.198;2024-01-15T02:19:52;19.75;;;3.95;;
25990;SDS011;13779;-33.886;151.198;2024-01-15T02:22:24;22.08;;;4.40;;
25990;SDS011;13779;-33.886;151.198;2024-01-15T02:24:55;24.48;;;4.47;;
25990;SDS011;13779;-33.886;151.198;2024-01-15T02:27:25;29.15;;;3.70;;
25990;SDS011;13779;-33.886;151.198;2024-01-15T02:29:56;17.05;;;2.78;;
25990;SDS011;13779;-33.886;151.198;2024-01-15T02:32:28;19.52;;;3.83;;
25990;SDS011;13779;-33.886;151.198;2024-01-15T02:34:58;27.13;;;4.03;;
25990;SDS011;13779;-33.886;151.198;2024-01-15T02:37:29;18.95;;;3.65;;
25990;SDS011;13779;-33.886;151.198;2024-01-15T02:40:01;22.60;;;3.95;;
25990;SDS011;13779;-33.886;151.198;2024-01-15T02:45:02;21.58;;;3.45;;
25990;SDS011;13779;-33.886;151.198;2024-01-15T02:47:33;25.40;;;5.00;;
25990;SDS011;13779;-33.886;151.198;2024-01-15T02:50:03;21.55;;;3.92;;
25990;SDS011;13779;-33.886;151.198;2024-01-15T02:52:34;19.77;;;4.18;;
25990;SDS011;13779;-33.886;151.198;2024-01-15T02:55:05;33.75;;;12.57;;
25990;SDS011;13779;-33.886;151.198;2024-01-15T03:00:06;26.33;;;5.05;;
25990;SDS011;13779;-33.886;151.198;2024-01-15T03:02:37;19.10;;;4.60;;
25990;SDS011;13779;-33.886;151.198;2024-01-15T03:05:10;27.10;;;5.10;;
25990;SDS011;13779;-33.886;151.198;2024-01-15T03:07:41;34.30;;;13.55;;
25990;SDS011;13779;-33.886;151.198;2024-01-15T03:10:12;28.10;;;13.90;;
25990;SDS011;13779;-33.886;151.198;2024-01-15T03:12:42;22.13;;;4.50;;
25990;SDS011;13779;-33.886;151.198;2024-01-15T03:15:13;20.23;;;3.03;;
25990;SDS011;13779;-33.886;151.198;2024-01-15T03:17:44;27.90;;;4.38;;
25990;SDS011;13779;-33.886;151.198;2024-01-15T03:20:14;24.38;;;4.32;;
25990;SDS011;13779;-33.886;151.198;2024-01-15T03:22:46;24.45;;;4.10;;
25990;SDS011;13779;-33.886;151.198;2024-01-15T03:25:17;14.80;;;3.35;;
25990;SDS011;13779;-33.886;151.198;2024-01-15T03:27:48;17.17;;;3.58;;
25990;SDS011;13779;-33.886;151.198;2024-01-15T03:30:18;23.42;;;3.95;;
25990;SDS011;13779;-33.886;151.198;2024-01-15T03:32:49;19.48;;;3.42;;
25990;SDS011;13779;-33.886;151.198;2024-01-15T03:35:20;21.63;;;3.92;;
25990;SDS011;13779;-33.886;151.198;2024-01-15T03:37:51;22.02;;;4.38;;
25990;SDS011;13779;-33.886;151.198;2024-01-15T03:40:21;17.98;;;3.72;;
25990;SDS011;13779;-33.886;151.198;2024-01-15T03:42:53;20.40;;;3.50;;
25990;SDS011;13779;-33.886;151.198;2024-01-15T03:45:23;21.15;;;3.40;;
25990;SDS011;13779;-33.886;151.198;2024-01-15T03:47:54;14.52;;;2.88;;
25990;SDS011;13779;-33.886;151.198;2024-01-15T03:50:28;23.10;;;4.22;;
25990;SDS011;13779;-33.886;151.198;2024-01-15T03:52:59;22.35;;;3.30;;
25990;SDS011;13779;-33.886;151.198;2024-01-15T03:55:29;17.15;;;3.97;;
25990;SDS011;13779;-33.886;151.198;2024-01-15T03:58:00;18.23;;;3.17;;
25990;SDS011;13779;-33.886;151.198;2024-01-15T04:00:30;14.45;;;3.00;;
25990;SDS011;13779;-33.886;151.198;2024-01-15T04:03:01;16.27;;;3.95;;
25990;SDS011;13779;-33.886;151.198;2024-01-15T04:05:32;18.90;;;3.67;;
25990;SDS011;13779;-33.886;151.198;2024-01-15T04:08:03;13.73;;;2.40;;
25990;SDS011;13779;-33.886;151.198;2024-01-15T04:10:35;20.35;;;3.17;;
25990;SDS011;13779;-33.886;151.198;2024-01-15T04:13:05;20.20;;;2.70;;
25990;SDS011;13779;-33.886;151.198;2024-01-15T04:15:36;16.10;;;3.20;;
25990;SDS011;13779;-33.886;151.198;2024-01-15T04:18:06;19.15;;;3.65;;
25990;SDS011;13779;-33.886;151.198;2024-01-15T04:20:37;24.25;;;3.50;;
25990;SDS011;13779;-33.886;151.198;2024-01-15T04:23:09;16.30;;;3.38;;
25990;SDS011;13779;-33.886;151.198;2024-01-15T04:25:39;19.58;;;3.35;;
25990;SDS011;13779;-33.886;151.198;2024-01-15T04:28:11;16.23;;;3.25;;
25990;SDS011;13779;-33.886;151.198;2024-01-15T04:33:12;21.02;;;4.78;;
25990;SDS011;13779;-33.886;151.198;2024-01-15T04:35:43;16.80;;;3.15;;
25990;SDS011;13779;-33.886;151.198;2024-01-15T04:38:13;19.30;;;3.60;;
25990;SDS011;13779;-33.886;151.198;2024-01-15T04:40:44;20.65;;;2.95;;
25990;SDS011;13779;-33.886;151.198;2024-01-15T04:43:15;16.60;;;3.28;;
25990;SDS011;13779;-33.886;151.198;2024-01-15T04:45:45;16.85;;;3.38;;
25990;SDS011;13779;-33.886;151.198;2024-01-15T04:48:16;22.88;;;3.90;;
25990;SDS011;13779;-33.886;151.198;2024-01-15T04:50:47;18.20;;;3.45;;
25990;SDS011;13779;-33.886;151.198;2024-01-15T04:53:17;15.40;;;2.72;;
25990;SDS011;13779;-33.886;151.198;2024-01-15T04:55:51;17.30;;;3.42;;
25990;SDS011;13779;-33.886;151.198;2024-01-15T05:00:54;12.63;;;2.38;;
25990;SDS011;13779;-33.886;151.198;2024-01-15T05:03:25;19.30;;;3.15;;
25990;SDS011;13779;-33.886;151.198;2024-01-15T05:05:56;18.38;;;4.43;;
25990;SDS011;13779;-33.886;151.198;2024-01-15T05:08:26;20.77;;;6.00;;
25990;SDS011;13779;-33.886;151.198;2024-01-15T05:10:57;19.20;;;4.93;;
25990;SDS011;13779;-33.886;151.198;2024-01-15T05:13:28;23.10;;;4.70;;
25990;SDS011;13779;-33.886;151.198;2024-01-15T05:15:59;17.23;;;3.45;;
25990;SDS011;13779;-33.886;151.198;2024-01-15T05:18:29;21.75;;;3.80;;
25990;SDS011;13779;-33.886;151.198;2024-01-15T05:21:01;22.10;;;4.13;;
25990;SDS011;13779;-33.886;151.198;2024-01-15T05:23:32;21.52;;;4.18;;
25990;SDS011;13779;-33.886;151.198;2024-01-15T05:26:03;21.77;;;4.40;;
25990;SDS011;13779;-33.886;151.198;2024-01-15T05:28:34;17.45;;;4.22;;
25990;SDS011;13779;-33.886;151.198;2024-01-15T05:31:05;20.30;;;4.22;;
25990;SDS011;13779;-33.886;151.198;2024-01-15T05:33:36;14.43;;;3.67;;
25990;SDS011;13779;-33.886;151.198;2024-01-15T05:36:07;15.75;;;3.50;;
25990;SDS011;13779;-33.886;151.198;2024-01-15T05:38:38;27.00;;;3.80;;
25990;SDS011;13779;-33.886;151.198;2024-01-15T05:41:09;22.35;;;4.38;;
25990;SDS011;13779;-33.886;151.198;2024-01-15T05:43:43;19.90;;;4.25;;
25990;SDS011;13779;-33.886;151.198;2024-01-15T05:46:14;21.70;;;4.55;;
25990;SDS011;13779;-33.886;151.198;2024-01-15T05:51:15;19.48;;;3.85;;
25990;SDS011;13779;-33.886;151.198;2024-01-15T05:53:45;23.17;;;4.05;;
25990;SDS011;13779;-33.886;151.198;2024-01-15T05:56:18;23.08;;;9.02;;
25990;SDS011;13779;-33.886;151.198;2024-01-15T05:58:49;28.23;;;13.13;;
25990;SDS011;13779;-33.886;151.198;2024-01-15T06:01:19;18.13;;;5.20;;
25990;SDS011;13779;-33.886;151.198;2024-01-15T06:03:50;17.05;;;3.28;;
25990;SDS011;13779;-33.886;151.198;2024-01-15T06:06:24;17.83;;;3.20;;
25990;SDS011;13779;-33.886;151.198;2024-01-15T06:08:56;20.10;;;3.65;;
25990;SDS011;13779;-33.886;151.198;2024-01-15T06:11:33;20.30;;;3.15;;
25990;SDS011;13779;-33.886;151.198;2024-01-15T06:14:04;19.40;;;3.78;;
25990;SDS011;13779;-33.886;151.198;2024-01-15T06:16:35;22.13;;;4.15;;
25990;SDS011;13779;-33.886;151.198;2024-01-15T06:19:06;17.10;;;3.95;;
25990;SDS011;13779;-33.886;151.198;2024-01-15T06:21:36;18.20;;;3.65;;
25990;SDS011;13779;-33.886;151.198;2024-01-15T06:24:08;21.05;;;4.50;;
25990;SDS011;13779;-33.886;151.198;2024-01-15T06:26:39;17.73;;;3.40;;
25990;SDS011;13779;-33.886;151.198;2024-01-15T06:31:39;17.48;;;2.78;;
25990;SDS011;13779;-33.886;151.198;2024-01-15T06:34:10;17.33;;;3.25;;
25990;SDS011;13779;-33.886;151.198;2024-01-15T06:36:41;18.27;;;2.80;;
25990;SDS011;13779;-33.886;151.198;2024-01-15T06:39:13;14.25;;;3.15;;
25990;SDS011;13779;-33.886;151.198;2024-01-15T06:41:43;20.42;;;3.10;;
25990;SDS011;13779;-33.886;151.198;2024-01-15T06:44:14;19.27;;;3.35;;
25990;SDS011;13779;-33.886;151.198;2024-01-15T06:46:45;13.45;;;3.50;;
25990;SDS011;13779;-33.886;151.198;2024-01-15T06:49:16;16.67;;;4.20;;
25990;SDS011;13779;-33.886;151.198;2024-01-15T06:51:47;32.58;;;4.82;;
25990;SDS011;13779;-33.886;151.198;2024-01-15T06:54:18;27.05;;;12.52;;
25990;SDS011;13779;-33.886;151.198;2024-01-15T06:56:49;29.02;;;12.20;;
25990;SDS011;13779;-33.886;151.198;2024-01-15T06:59:19;20.90;;;4.50;;
25990;SDS011;13779;-33.886;151.198;2024-01-15T07:01:50;14.93;;;2.97;;
25990;SDS011;13779;-33.886;151.198;2024-01-15T07:04:21;19.77;;;2.75;;
25990;SDS011;13779;-33.886;151.198;2024-01-15T07:06:51;15.65;;;3.30;;
25990;SDS011;13779;-33.886;151.198;2024-01-15T07:09:22;19.40;;;2.80;;
25990;SDS011;13779;-33.886;151.198;2024-01-15T07:11:52;17.73;;;2.97;;
25990;SDS011;13779;-33.886;151.198;2024-01-15T07:14:25;13.80;;;2.70;;
25990;SDS011;13779;-33.886;151.198;2024-01-15T07:16:56;13.82;;;3.15;;
25990;SDS011;13779;-33.886;151.198;2024-01-15T07:19:26;15.95;;;3.38;;
25990;SDS011;13779;-33.886;151.198;2024-01-15T07:21:58;16.13;;;3.30;;
25990;SDS011;13779;-33.886;151.198;2024-01-15T07:24:29;18.55;;;3.55;;
25990;SDS011;13779;-33.886;151.198;2024-01-15T07:27:03;15.30;;;3.03;;
25990;SDS011;13779;-33.886;151.198;2024-01-15T07:29:34;16.70;;;3.10;;
25990;SDS011;13779;-33.886;151.198;2024-01-15T07:32:06;19.02;;;2.92;;
25990;SDS011;13779;-33.886;151.198;2024-01-15T07:34:37;14.15;;;3.08;;
25990;SDS011;13779;-33.886;151.198;2024-01-15T07:37:07;17.50;;;3.63;;
25990;SDS011;13779;-33.886;151.198;2024-01-15T07:42:11;14.30;;;2.70;;
25990;SDS011;13779;-33.886;151.198;2024-01-15T07:44:42;13.25;;;2.85;;
25990;SDS011;13779;-33.886;151.198;2024-01-15T07:47:13;16.15;;;3.70;;
25990;SDS011;13779;-33.886;151.198;2024-01-15T07:49:44;28.88;;;9.75;;
25990;SDS011;13779;-33.886;151.198;2024-01-15T07:52:15;15.23;;;4.78;;
25990;SDS011;13779;-33.886;151.198;2024-01-15T07:54:46;14.98;;;3.67;;
25990;SDS011;13779;-33.886;151.198;2024-01-15T07:57:17;14.60;;;3.80;;
25990;SDS011;13779;-33.886;151.198;2024-01-15T07:59:47;16.55;;;3.30;;
25990;SDS011;13779;-33.886;151.198;2024-01-15T08:02:18;19.27;;;3.95;;
25990;SDS011;13779;-33.886;151.198;2024-01-15T08:04:50;16.35;;;3.90;;
25990;SDS011;13779;-33.886;151.198;2024-01-15T08:07:21;21.85;;;4.95;;
25990;SDS011;13779;-33.886;151.198;2024-01-15T08:09:52;27.05;;;4.10;;
25990;SDS011;13779;-33.886;151.198;2024-01-15T08:12:23;17.38;;;3.97;;
25990;SDS011;13779;-33.886;151.198;2024-01-15T08:14:53;15.80;;;3.85;;
25990;SDS011;13779;-33.886;151.198;2024-01-15T08:17:24;20.27;;;5.05;;
25990;SDS011;13779;-33.886;151.198;2024-01-15T08:19:58;15.32;;;3.67;;
25990;SDS011;13779;-33.886;151.198;2024-01-15T08:22:30;17.75;;;4.30;;
25990;SDS011;13779;-33.886;151.198;2024-01-15T08:25:00;21.00;;;4.25;;
25990;SDS011;13779;-33.886;151.198;2024-01-15T08:27:31;21.83;;;3.10;;
25990;SDS011;13779;-33.886;151.198;2024-01-15T08:32:33;17.02;;;3.58;;
25990;SDS011;13779;-33.886;151.198;2024-01-15T08:35:09;16.45;;;3.33;;
25990;SDS011;13779;-33.886;151.198;2024-01-15T08:37:40;16.20;;;3.53;;
25990;SDS011;13779;-33.886;151.198;2024-01-15T08:40:11;16.35;;;3.10;;
25990;SDS011;13779;-33.886;151.198;2024-01-15T08:42:42;23.88;;;4.03;;
25990;SDS011;13779;-33.886;151.198;2024-01-15T08:45:14;16.50;;;3.15;;
25990;SDS011;13779;-33.886;151.198;2024-01-15T08:47:45;20.33;;;4.22;;
25990;SDS011;13779;-33.886;151.198;2024-01-15T08:50:15;17.60;;;3.28;;
25990;SDS011;13779;-33.886;151.198;2024-01-15T08:52:46;15.15;;;3.05;;
25990;SDS011;13779;-33.886;151.198;2024-01-15T08:55:17;19.20;;;3.17;;
25990;SDS011;13779;-33.886;151.198;2024-01-15T08:57:48;18.13;;;3.05;;
25990;SDS011;13779;-33.886;151.198;2024-01-15T09:00:19;14.60;;;3.00;;
25990;SDS011;13779;-33.886;151.198;2024-01-15T09:02:50;12.63;;;3.13;;
25990;SDS011;13779;-33.886;151.198;2024-01-15T09:05:21;16.58;;;3.40;;
25990;SDS011;13779;-33.886;151.198;2024-01-15T09:07:52;13.07;;;3.28;;
25990;SDS011;13779;-33.886;151.198;2024-01-15T09:10:23;16.60;;;3.80;;
25990;SDS011;13779;-33.886;151.198;2024-01-15T09:12:54;19.98;;;3.92;;
25990;SDS011;13779;-33.886;151.198;2024-01-15T09:15:27;16.20;;;3.25;;
25990;SDS011;13779;-33.886;151.198;2024-01-15T09:17:58;12.90;;;2.95;;
25990;SDS011;13779;-33.886;151.198;2024-01-15T09:20:33;18.70;;;3.22;;
25990;SDS011;13779;-33.886;151.198;2024-01-15T09:23:04;15.23;;;4.57;;
25990;SDS011;13779;-33.886;151.198;2024-01-15T09:25:38;15.77;;;3.95;;
25990;SDS011;13779;-33.886;151.198;2024-01-15T09:28:08;17.10;;;3.85;;
25990;SDS011;13779;-33.886;151.198;2024-01-15T09:30:39;20.98;;;7.20;;
25990;SDS011;13779;-33.886;151.198;2024-01-15T09:33:09;26.40;;;7.05;;
25990;SDS011;13779;-33.886;151.198;2024-01-15T09:35:40;17.48;;;4.35;;
25990;SDS011;13779;-33.886;151.198;2024-01-15T09:38:11;25.83;;;4.32;;
25990;SDS011;13779;-33.886;151.198;2024-01-15T09:40:45;19.42;;;3.63;;
25990;SDS011;13779;-33.886;151.198;2024-01-15T09:43:15;24.38;;;4.32;;
25990;SDS011;13779;-33.886;151.198;2024-01-15T09:45:49;18.38;;;3.28;;
25990;SDS011;13779;-33.886;151.198;2024-01-15T09:48:20;21.90;;;4.20;;
25990;SDS011;13779;-33.886;151.198;2024-01-15T09:50:51;22.48;;;4.40;;
25990;SDS011;13779;-33.886;151.198;2024-01-15T09:53:22;21.00;;;3.80;;
25990;SDS011;13779;-33.886;151.198;2024-01-15T09:55:54;27.27;;;3.90;;
25990;SDS011;13779;-33.886;151.198;2024-01-15T09:58:25;18.77;;;3.55;;
25990;SDS011;13779;-33.886;151.198;2024-01-15T10:00:58;17.48;;;3.45;;
25990;SDS011;13779;-33.886;151.198;2024-01-15T10:03:33;19.52;;;3.80;;
25990;SDS011;13779;-33.886;151.198;2024-01-15T10:06:04;21.05;;;3.70;;
25990;SDS011;13779;-33.886;151.198;2024-01-15T10:08:36;19.40;;;3.85;;
25990;SDS011;13779;-33.886;151.198;2024-01-15T10:11:07;25.33;;;4.68;;
25990;SDS011;13779;-33.886;151.198;2024-01-15T10:13:38;37.63;;;12.33;;
25990;SDS011;13779;-33.886;151.198;2024-01-15T10:16:10;19.85;;;4.80;;
25990;SDS011;13779;-33.886;151.198;2024-01-15T10:18:41;25.27;;;6.30;;
25990;SDS011;13779;-33.886;151.198;2024-01-15T10:21:11;28.02;;;6.97;;
25990;SDS011;13779;-33.886;151.198;2024-01-15T10:23:42;31.40;;;6.07;;
25990;SDS011;13779;-33.886;151.198;2024-01-15T10:26:13;21.33;;;6.22;;
25990;SDS011;13779;-33.886;151.198;2024-01-15T10:28:45;20.95;;;5.80;;
25990;SDS011;13779;-33.886;151.198;2024-01-15T10:31:21;17.00;;;4.07;;
25990;SDS011;13779;-33.886;151.198;2024-01-15T10:33:53;28.85;;;11.20;;
25990;SDS011;13779;-33.886;151.198;2024-01-15T10:36:41;25.25;;;9.20;;
25990;SDS011;13779;-33.886;151.198;2024-01-15T10:39:17;26.65;;;8.43;;
25990;SDS011;13779;-33.886;151.198;2024-01-15T10:41:48;26.17;;;10.98;;
25990;SDS011;13779;-33.886;151.198;2024-01-15T10:44:22;19.83;;;7.07;;
25990;SDS011;13779;-33.886;151.198;2024-01-15T10:46:53;21.20;;;5.68;;
25990;SDS011;13779;-33.886;151.198;2024-01-15T10:49:26;23.63;;;8.57;;
25990;SDS011;13779;-33.886;151.198;2024-01-15T10:51:58;20.00;;;6.85;;
25990;SDS011;13779;-33.886;151.198;2024-01-15T10:54:34;17.58;;;6.05;;
25990;SDS011;13779;-33.886;151.198;2024-01-15T10:57:06;19.63;;;5.63;;
25990;SDS011;13779;-33.886;151.198;2024-01-15T10:59:37;20.73;;;5.57;;
25990;SDS011;13779;-33.886;151.198;2024-01-15T11:02:07;22.10;;;5.55;;
25990;SDS011;13779;-33.886;151.198;2024-01-15T11:04:39;13.23;;;4.20;;
25990;SDS011;13779;-33.886;151.198;2024-01-15T11:07:10;16.88;;;4.47;;
25990;SDS011;13779;-33.886;151.198;2024-01-15T11:09:42;14.45;;;2.90;;
25990;SDS011;13779;-33.886;151.198;2024-01-15T11:12:15;17.10;;;4.47;;
25990;SDS011;13779;-33.886;151.198;2024-01-15T11:14:46;15.32;;;3.40;;
25990;SDS011;13779;-33.886;151.198;2024-01-15T11:17:18;18.17;;;3.45;;
25990;SDS011;13779;-33.886;151.198;2024-01-15T11:19:50;19.33;;;4.10;;
25990;SDS011;13779;-33.886;151.198;2024-01-15T11:25:04;17.85;;;3.17;;
25990;SDS011;13779;-33.886;151.198;2024-01-15T11:27:51;16.70;;;4.03;;
25990;SDS011;13779;-33.886;151.198;2024-01-15T11:30:24;20.20;;;3.20;;
25990;SDS011;13779;-33.886;151.198;2024-01-15T11:32:56;13.70;;;3.13;;
25990;SDS011;13779;-33.886;151.198;2024-01-15T11:38:29;19.40;;;2.83;;
25990;SDS011;13779;-33.886;151.198;2024-01-15T11:41:00;15.75;;;3.10;;
25990;SDS011;13779;-33.886;151.198;2024-01-15T11:43:43;14.80;;;2.85;;
25990;SDS011;13779;-33.886;151.198;2024-01-15T11:46:14;25.27;;;3.15;;
25990;SDS011;13779;-33.886;151.198;2024-01-15T11:48:47;19.83;;;4.05;;
25990;SDS011;13779;-33.886;151.198;2024-01-15T11:51:31;22.35;;;3.88;;
25990;SDS011;13779;-33.886;151.198;2024-01-15T11:54:03;18.75;;;3.85;;
25990;SDS011;13779;-33.886;151.198;2024-01-15T11:56:38;18.15;;;2.85;;
25990;SDS011;13779;-33.886;151.198;2024-01-15T11:59:09;19.25;;;3.08;;
25990;SDS011;13779;-33.886;151.198;2024-01-15T12:01:40;22.23;;;3.42;;
25990;SDS011;13779;-33.886;151.198;2024-01-15T12:06:44;16.65;;;3.05;;
25990;SDS011;13779;-33.886;151.198;2024-01-15T12:09:18;20.02;;;3.88;;
25990;SDS011;13779;-33.886;151.198;2024-01-15T12:11:52;17.75;;;3.75;;
25990;SDS011;13779;-33.886;151.198;2024-01-15T12:14:31;18.65;;;3.30;;
25990;SDS011;13779;-33.886;151.198;2024-01-15T12:17:05;20.48;;;3.75;;
25990;SDS011;13779;-33.886;151.198;2024-01-15T12:19:37;21.65;;;3.72;;
25990;SDS011;13779;-33.886;151.198;2024-01-15T12:22:08;24.35;;;4.53;;
25990;SDS011;13779;-33.886;151.198;2024-01-15T12:24:39;25.42;;;4.03;;
25990;SDS011;13779;-33.886;151.198;2024-01-15T12:27:09;20.30;;;3.65;;
25990;SDS011;13779;-33.886;151.198;2024-01-15T12:29:40;16.98;;;3.17;;
25990;SDS011;13779;-33.886;151.198;2024-01-15T12:32:12;18.52;;;4.05;;
25990;SDS011;13779;-33.886;151.198;2024-01-15T12:34:42;19.98;;;3.47;;
25990;SDS011;13779;-33.886;151.198;2024-01-15T12:37:13;18.75;;;3.40;;
25990;SDS011;13779;-33.886;151.198;2024-01-15T12:39:44;21.38;;;3.85;;
25990;SDS011;13779;-33.886;151.198;2024-01-15T12:42:14;24.55;;;10.52;;
25990;SDS011;13779;-33.886;151.198;2024-01-15T12:47:15;77.38;;;49.38;;
25990;SDS011;13779;-33.886;151.198;2024-01-15T12:49:47;116.70;;;48.45;;
25990;SDS011;13779;-33.886;151.198;2024-01-15T12:52:28;38.15;;;11.07;;
25990;SDS011;13779;-33.886;151.198;2024-01-15T12:55:00;57.10;;;18.05;;
25990;SDS011;13779;-33.886;151.198;2024-01-15T12:57:30;42.65;;;13.05;;
25990;SDS011;13779;-33.886;151.198;2024-01-15T13:00:01;52.63;;;17.10;;
25990;SDS011;13779;-33.886;151.198;2024-01-15T13:02:37;50.63;;;17.38;;
25990;SDS011;13779;-33.886;151.198;2024-01-15T13:05:12;18.80;;;4.22;;
25990;SDS011;13779;-33.886;151.198;2024-01-15T13:07:43;62.78;;;21.83;;
25990;SDS011;13779;-33.886;151.198;2024-01-15T13:10:13;77.93;;;29.97;;
25990;SDS011;13779;-33.886;151.198;2024-01-15T13:12:43;41.97;;;15.93;;
25990;SDS011;13779;-33.886;151.198;2024-01-15T13:15:14;40.77;;;14.33;;
25990;SDS011;13779;-33.886;151.198;2024-01-15T13:17:44;39.15;;;12.02;;
25990;SDS011;13779;-33.886;151.198;2024-01-15T13:20:15;47.93;;;18.47;;
25990;SDS011;13779;-33.886;151.198;2024-01-15T13:25:15;73.50;;;31.52;;
25990;SDS011;13779;-33.886;151.198;2024-01-15T13:27:46;107.20;;;50.17;;
25990;SDS011;13779;-33.886;151.198;2024-01-15T13:30:16;43.50;;;15.55;;
25990;SDS011;13779;-33.886;151.198;2024-01-15T13:32:46;71.68;;;28.45;;
25990;SDS011;13779;-33.886;151.198;2024-01-15T13:35:17;42.03;;;13.57;;
25990;SDS011;13779;-33.886;151.198;2024-01-15T13:37:47;40.53;;;13.02;;
25990;SDS011;13779;-33.886;151.198;2024-01-15T13:40:17;70.03;;;24.73;;
25990;SDS011;13779;-33.886;151.198;2024-01-15T13:42:48;30.52;;;11.18;;
25990;SDS011;13779;-33.886;151.198;2024-01-15T13:45:20;47.28;;;15.20;;
25990;SDS011;13779;-33.886;151.198;2024-01-15T13:47:52;52.05;;;21.30;;
25990;SDS011;13779;-33.886;151.198;2024-01-15T13:50:22;40.88;;;15.00;;
25990;SDS011;13779;-33.886;151.198;2024-01-15T13:52:52;29.58;;;8.50;;
25990;SDS011;13779;-33.886;151.198;2024-01-15T13:55:23;51.10;;;19.53;;
25990;SDS011;13779;-33.886;151.198;2024-01-15T13:57:53;36.75;;;13.32;;
25990;SDS011;13779;-33.886;151.198;2024-01-15T14:00:24;37.00;;;13.48;;
25990;SDS011;13779;-33.886;151.198;2024-01-15T14:02:54;35.55;;;10.63;;
25990;SDS011;13779;-33.886;151.198;2024-01-15T14:05:25;32.35;;;10.27;;
25990;SDS011;13779;-33.886;151.198;2024-01-15T14:07:55;19.98;;;6.90;;
25990;SDS011;13779;-33.886;151.198;2024-01-15T14:10:25;28.33;;;8.47;;
25990;SDS011;13779;-33.886;151.198;2024-01-15T14:12:56;25.87;;;7.07;;
25990;SDS011;13779;-33.886;151.198;2024-01-15T14:15:26;26.03;;;7.43;;
25990;SDS011;13779;-33.886;151.198;2024-01-15T14:17:56;24.20;;;7.38;;
25990;SDS011;13779;-33.886;151.198;2024-01-15T14:20:28;23.73;;;6.10;;
25990;SDS011;13779;-33.886;151.198;2024-01-15T14:22:58;23.42;;;6.47;;
25990;SDS011;13779;-33.886;151.198;2024-01-15T14:25:29;31.88;;;7.60;;
25990;SDS011;13779;-33.886;151.198;2024-01-15T14:27:59;17.38;;;5.22;;
25990;SDS011;13779;-33.886;151.198;2024-01-15T14:30:29;18.27;;;5.47;;
25990;SDS011;13779;-33.886;151.198;2024-01-15T14:33:00;20.58;;;5.20;;
25990;SDS011;13779;-33.886;151.198;2024-01-15T14:35:31;19.13;;;5.88;;
25990;SDS011;13779;-33.886;151.198;2024-01-15T14:38:01;24.83;;;5.43;;
25990;SDS011;13779;-33.886;151.198;2024-01-15T14:40:31;25.15;;;6.38;;
25990;SDS011;13779;-33.886;151.198;2024-01-15T14:43:01;29.48;;;13.35;;
25990;SDS011;13779;-33.886;151.198;2024-01-15T14:45:32;44.75;;;19.83;;
25990;SDS011;13779;-33.886;151.198;2024-01-15T14:48:02;68.95;;;36.13;;
25990;SDS011;13779;-33.886;151.198;2024-01-15T14:50:32;62.88;;;36.17;;
25990;SDS011;13779;-33.886;151.198;2024-01-15T14:53:03;33.93;;;15.77;;
25990;SDS011;13779;-33.886;151.198;2024-01-15T14:55:33;37.00;;;12.13;;